Tiempo atmosférico en la estación meteorológica de San Sebastián Aeropuerto, Gipuzkoa (4 m.)



Fecha
DESCASC
Temp. máxima en grados centígrados (hora)
DESCASC
Temp. mínima en grados centígrados (hora)
DESCASC
Temp. media en grados centígrados
DESCASC
Racha de viento máxima en m/sg (hora)
DESCASC
Velocidad máxima media en intervalos de 10 minutos(hora)
DESCASC
Precipitaciones diarias en mm
DESCASC
Precipitaciones de 00:00 a 06:00 en mm
DESCASC
Precipitaciones de 06:00 a 12:00 en mm
DESCASC
Precipitaciones de 12:00 a 18:00 en mm
DESCASC
Precipitaciones de 18:00 a 24:00 en mm
DESCASC
25-04-2019 20.6 (16:40) 9.8 (07:20) 15.2 15 (12:10) 10 (12:10) 3 3 0 0 0
24-04-2019 19.1 (17:50) 7.5 (07:40) 13.3 18.61 (14:50) 11.94 (21:30) 4.4 0.6 0 0 3.8
23-04-2019 21.4 (15:00) 11.2 (23:59) 16.3 12.78 (16:40) 8.06 (16:50) 5 0 0 1 4
22-04-2019 21.1 (20:40) 10.7 (00:00) 15.9 7.78 (18:40) 5.83 (18:40) 0 0 0 0 0
21-04-2019 16.5 (15:40) 8.7 (00:00) 12.6 4.17 (01:30) 3.06 (02:00) 0 0 0 0 0
20-04-2019 20.6 (16:30) 10.3 (00:00) 15.5 7.22 (10:50) 5 (10:50) 0 0 0 0 0
19-04-2019 18.6 (00:00) 14.7 (00:00) 16.7 -- (--) -- (--) -- -- 0 0 0
18-04-2019 24.2 (06:30) 18.6 (00:00) 21.4 10.83 (06:30) 7.22 (06:30) 0 0 0 0 0
17-04-2019 28.7 (17:40) 15.1 (00:00) 21.9 13.33 (12:50) 7.78 (13:00) 0 0 0 0 0
16-04-2019 22.4 (20:40) 12.1 (00:00) 17.3 8.89 (17:50) 6.94 (18:30) 1.5 1.3 0.2 0 0
15-04-2019 27 (17:20) 10.6 (00:00) 18.8 19.72 (17:50) 11.67 (17:50) 25.9 0 0 0.1 25.8
14-04-2019 18.1 (19:00) 10.8 (00:00) 14.5 5.83 (15:40) 4.17 (15:40) 0 0 0 0 0
13-04-2019 17.9 (15:50) 4.9 (00:00) 11.4 7.22 (16:10) 4.44 (15:40) 0 0 0 0 0
12-04-2019 17.5 (14:00) 9.2 (00:00) 13.3 7.78 (13:50) 5 (15:20) 0 0 0 0 0
11-04-2019 16.5 (16:50) 11.8 (00:00) 14.2 9.17 (07:10) 5.83 (07:10) 1.7 0 1.6 0 0.1
10-04-2019 17.1 (16:20) 10.6 (00:00) 13.9 9.17 (17:50) 5.56 (17:00) 6.1 0 6.1 0 0
09-04-2019 19.9 (13:30) 6.7 (00:00) 13.3 9.17 (20:20) 6.11 (20:10) 0 0 0 0 0
08-04-2019 16.7 (16:20) 9.5 (00:00) 13.1 8.89 (12:50) 6.11 (12:50) 1 0 0.6 0.4 0
07-04-2019 16.6 (17:10) 9.3 (00:00) 13 7.22 (13:40) 4.72 (12:20) 6.3 1.2 2.8 2.3 0
06-04-2019 19.5 (16:50) 8.3 (00:00) 13.9 10.83 (15:30) 7.5 (15:30) 3 0.7 0 0 2.3
05-04-2019 16.6 (16:00) 9.1 (00:00) 12.9 11.67 (08:00) 7.5 (08:00) 10.2 0 0 0.1 10.1
04-04-2019 14.6 (14:40) 5.1 (00:00) 9.9 11.67 (06:10) 7.78 (06:10) 9.2 5.9 3.3 0 0
03-04-2019 11.7 (00:00) 5.5 (00:00) 8.6 16.94 (20:20) 11.11 (17:50) 26.5 4.1 8.8 9.4 4.2
02-04-2019 16.2 (13:40) 11.7 (00:00) 14 9.17 (13:20) 5.83 (14:10) 7 2.7 0 0 4.3
01-04-2019 16.9 (16:20) 12.2 (00:00) 14.5 5 (04:20) 4.17 (15:00) 3.9 2.6 1.3 0 0
31-03-2019 19.5 (12:10) 7.6 (00:00) 13.5 6.67 (13:10) 4.72 (13:20) 0 0 0 0 0
30-03-2019 23.6 (13:30) 11.8 (00:00) 17.7 10.28 (05:40) 7.22 (09:50) 0 0 0 0 0
29-03-2019 21.2 (19:00) 6 (00:00) 13.6 8.33 (16:40) 5.28 (16:40) 0 0 0 0 0
28-03-2019 16.6 (14:10) 7 (00:00) 11.8 7.22 (13:40) 5 (14:30) 0 0 0 0 0
27-03-2019 15.3 (13:20) 4.8 (00:00) 10.1 8.33 (22:50) 5.83 (22:50) 0 0 0 0 0

Gráficas

Temp. máximas Temp. mínimas Temp. medias Precipitaciones Rachas de viento máximas Velocidades máximas media en intervalos de 10 minutos

Datos horarios

Fecha y hora oficial Temperatura (ºC) Velocidad del viento (km/h) Dirección del viento Racha (km/h) Dirección de racha Precipitación (mm) Presión (hPa) Tendencia (hPa) Humedad (%)
2019-04-25 23:00:00 13.4 29 Oeste 50 Oeste 0 1011.1 4.5 60
2019-04-25 22:00:00 16.2 17 Sudoeste 42 Sudoeste 0 1008.6 2 37
2019-04-25 21:00:00 16.9 28 Sudoeste 46 Sudoeste 0 1007.7 1.3 34
2019-04-25 20:00:00 18.3 28 Sudoeste 52 Sur 0 1006.6 0.5 33
2019-04-25 19:00:00 19.2 28 Sudoeste 48 Sudoeste 0 1006.6 0.7 29
2019-04-25 18:00:00 19.7 31 Sudoeste 48 Sudoeste 0 1006.4 0.2 27
2019-04-25 17:00:00 20.1 28 Sudoeste 42 Sudoeste 0 1006.1 0.3 26
2019-04-25 16:00:00 20.1 33 Sudoeste 50 Sur 0 1005.9 0.3 26
2019-04-25 15:00:00 19.2 32 Sudoeste 52 Sudoeste 0 1006.2 1.3 29
2019-04-25 14:00:00 17.9 31 Sudoeste 50 Sudoeste 0 1005.8 1.1 34
2019-04-25 13:00:00 17.4 27 Sudoeste 54 Sudoeste 0 1005.6 1.5 38
2019-04-25 12:00:00 17.4 31 Sudoeste 45 Sudoeste 0 1004.9 1.6 36
2019-04-25 11:00:00 15.2 31 Sudoeste 50 Sudoeste 0 1004.7 1.7 42
2019-04-25 10:00:00 14.5 27 Sudoeste 42 Sudoeste 0 1004.1 2.6 44
2019-04-25 09:00:00 13.5 17 Sudoeste 32 Sudoeste 0 1003.3 2.1 53
2019-04-25 08:00:00 10.5 8 Sudoeste 17 Sudoeste 0 1003 2.4 72
2019-04-25 07:00:00 10.3 10 Sudoeste 17 Sur 0 1001.5 0.2 76
2019-04-25 06:00:00 11.3 19 Sur 24 Sur 0 1001.2 0.8 77
2019-04-25 05:00:00 11.8 18 Sudoeste 24 Sudoeste 0.6 1000.6 0.3 83
2019-04-25 04:00:00 12.2 11 Sur 18 Sudoeste 1.7 1001.3 1.5 88
2019-04-25 03:00:00 12.8 13 Oeste 18 Sudoeste 0.7 1000.4 1.1 82
2019-04-25 02:00:00 14.1 12 Sudoeste 17 Sudoeste 0 1000.3 0.9 66
2019-04-25 01:00:00 13.6 9 Sudoeste 30 Sudoeste 0 999.8 0.5 67
2019-04-25 00:00:00 14.9 21 Sudoeste 35 Sudoeste 0 999.3 0.4 59
2019-04-24 23:00:00 14.7 15 Sur 30 Sudoeste 0 999.4 2.2 65
2019-04-24 22:00:00 15.1 24 Oeste 67 Sur 0.3 999.3 2.5 60
2019-04-24 21:00:00 13 18 Sudoeste 42 Sudoeste 3.5 998.9 2.1 84
2019-04-24 20:00:00 17.1 24 Sur 42 Sur 0 997.2 0.1 52
2019-04-24 19:00:00 17.6 26 Sur 52 Sur 0 996.8 0.1 45
2019-04-24 18:00:00 18.5 39 Sur 61 Sur 0 996.8 -0.4 42
2019-04-24 17:00:00 16.9 30 Sur 65 Sudoeste 0 997.1 -0.7 44
2019-04-24 16:00:00 17.8 32 Sur 63 Sudoeste 0 996.7 -1.7 40
2019-04-24 15:00:00 17 36 Sur 67 Sur 0 997.2 -1.5 41
2019-04-24 14:00:00 16.2 36 Sur 63 Sur 0 997.8 -1.1 43
2019-04-24 13:00:00 13.4 28 Sur 55 Sur 0 998.4 -0.7 49
2019-04-24 12:00:00 14.5 40 Sur 61 Sur 0 998.7 -0.2 42
2019-04-24 11:00:00 14.2 18 Sur 30 Sudoeste 0 998.9 -0.1 47
2019-04-24 10:00:00 13.8 18 Sur 39 Sur 0 999.1 0.1 51
2019-04-24 09:00:00 10.5 5 Noroeste 8 Noroeste 0 998.9 -0.3 80
2019-04-24 08:00:00 8 6 Sur 9 Sudoeste 0 999 -0.4 91
2019-04-24 07:00:00 8.4 4 Sudoeste 11 Sudeste 0 999 -0.5 90
2019-04-24 06:00:00 9.1 8 Sur 15 Oeste 0 999.2 -0.2 89
2019-04-24 05:00:00 10.1 12 Sudoeste 17 Sudoeste 0 999.4 0 85
2019-04-24 04:00:00 10.5 12 Sudoeste 17 Sudoeste 0 999.5 0.4 83
2019-04-24 03:00:00 10.5 10 Sudoeste 15 Sur 0 999.4 0.8 86
2019-04-24 02:00:00 10.8 9 Sur 28 Sudoeste 0 999.4 2.5 85
2019-04-24 01:00:00 10.8 20 Oeste 48 Oeste 0.6 999.1 2.7 85
2019-04-24 00:00:00 11.5 27 Oeste 46 Oeste 1.7 998.6 3 86
2019-04-23 23:00:00 11.9 6 Sudoeste 13 Este 0 996.9 2 88
2019-04-23 22:00:00 12.7 10 Este 18 Sur 0 996.4 1.7 80
2019-04-23 21:00:00 13.1 6 Sur 11 Sudoeste 2.1 995.6 0.9 90
2019-04-23 20:00:00 13.7 7 Sur 13 Noroeste 0.2 994.9 0.6 86
2019-04-23 19:00:00 13.8 0 Calma 11 Oeste 0 994.7 1.8 83
2019-04-23 18:00:00 13.4 8 Noroeste 41 Noroeste 0.3 994.7 2.3 84
2019-04-23 17:00:00 14.8 28 Oeste 46 Noroeste 0.6 994.3 1.6 83
2019-04-23 16:00:00 17 15 Sudeste 42 Sur 0.1 992.9 -0.2 67
2019-04-23 15:00:00 21.3 18 Sur 35 Sur 0 992.4 -0.9 40
2019-04-23 14:00:00 20.8 11 Sudoeste 17 Sudoeste 0 992.7 -0.5 42
2019-04-23 13:00:00 20.1 15 Sur 24 Sur 0 993.1 0.1 47
2019-04-23 12:00:00 19.6 8 Nordeste 11 Nordeste 0 993.3 0.3 53
2019-04-23 11:00:00 18.5 9 Norte 15 Norte 0 993.2 0.7 56
2019-04-23 10:00:00 17.6 7 Norte 11 Norte 0 993 1 60
2019-04-23 09:00:00 16.9 4 Oeste 9 Nordeste 0 993 0.7 59
2019-04-23 08:00:00 16.2 6 Oeste 26 Sur 0 992.5 -0.1 58
2019-04-23 07:00:00 18 24 Sur 35 Sur 0 992 -0.9 48
2019-04-23 06:00:00 17.5 21 Sur 32 Sur 0 992.3 -1 50
2019-04-23 05:00:00 17.6 22 Sur 33 Sudeste 0 992.6 -1.5 50
2019-04-23 04:00:00 17.4 10 Sur 22 Sur 0 992.9 -1.6 49
2019-04-23 03:00:00 17.2 3 Oeste 13 Sudoeste 0 993.3 -1.7 50
2019-04-23 02:00:00 17.9 7 Sur 22 Sur 0 994.1 -1.2 47
2019-04-23 01:00:00 19.3 12 Sur 28 Sur 0 994.5 -1.1 42
2019-04-23 00:00:00 19.5 18 Sudoeste 28 Sudoeste 0 995 -0.8 41
2019-04-22 23:00:00 19.9 10 Sur 22 Sur 0 995.3 -0.7 38
2019-04-22 22:00:00 18.5 5 Oeste 11 Sudeste 0 995.6 -0.3 55
2019-04-22 21:00:00 20.5 5 Sudeste 22 Sudeste 0 995.8 -0.6 41
2019-04-22 20:00:00 20.8 16 Este 28 Este 0 996 -1.2 53
2019-04-22 19:00:00 20.7 17 Este 28 Este 0 995.9 -2.4 52
2019-04-22 18:00:00 17.7 13 Norte 21 Norte 0 996.4 -2.9 75
2019-04-22 17:00:00 17.1 12 Norte 17 Norte 0 997.2 -2.9 73
2019-04-22 16:00:00 16.2 12 Norte 21 Nordeste 0 998.3 -2.8 74
2019-04-22 15:00:00 16.6 15 Nordeste 21 Nordeste 0 999.3 -2.4 70
2019-04-22 14:00:00 16.9 14 Nordeste 18 Norte 0 1000.1 -2.2 68
2019-04-22 13:00:00 16.2 13 Nordeste 18 Norte 0 1001.1 -2 70
2019-04-22 12:00:00 16.4 12 Nordeste 15 Norte 0 1001.7 -2.2 70
2019-04-22 11:00:00 15.7 5 Este 9 Sudeste 0 1002.3 -1.9 68
2019-04-22 10:00:00 12.6 6 Sur 9 Sudoeste 0 1003.1 -1.5 85
2019-04-22 09:00:00 10.9 5 Sudoeste 9 Sur 0 1003.9 -1.3 90
2019-04-22 08:00:00 10.9 0 Calma 8 Sur 0 1004.2 -2 89
2019-04-22 07:00:00 11.4 8 Sudeste 11 Sudoeste 0 1004.6 -2.4 89
2019-04-22 06:00:00 12.1 8 Sudoeste 13 Sudoeste 0 1005.2 -2.7 86
2019-04-22 05:00:00 12.5 5 Sur 9 Sur 0 1006.2 -2.7 86
2019-04-22 04:00:00 12.6 9 Sudoeste 11 Sudoeste 0 1007 -2.5 84
2019-04-22 03:00:00 12.8 9 Sudoeste 15 Sudoeste 0 1007.9 -2.3 84
2019-04-22 02:00:00 13 9 Sudoeste 13 Oeste 0 1008.9 -1.7 84
2019-04-22 01:00:00 12.9 9 Sudoeste 13 Sudoeste 0 1009.5 -1.4 84
2019-04-22 00:00:00 13.3 8 Sudoeste 13 Sudoeste 0 1010.2 -0.8 83
2019-04-21 23:00:00 13.8 7 Sudoeste 9 Sudoeste 0 1010.6 -0.6 82
2019-04-21 22:00:00 14.3 7 Sudoeste 9 Sudoeste 0 1010.9 -0.8 81
2019-04-21 21:00:00 15 0 Calma 5 Norte 0 1011 -1.4 78
2019-04-21 20:00:00 15.6 0 Calma 11 Norte 0 1011.2 -1.3 75
2019-04-21 19:00:00 14.9 7 Nordeste 13 Norte 0 1011.7 -1.3 77
2019-04-21 18:00:00 14.7 6 Norte 15 Norte 0 1012.4 -1.2 73
2019-04-21 17:00:00 16 7 Norte 11 Norte 0 1012.5 -1.7 62
2019-04-21 16:00:00 16.4 10 Norte 15 Norte 0 1013 -2 65
2019-04-21 15:00:00 15.7 8 Norte 11 Norte 0 1013.6 -1.9 67
2019-04-21 14:00:00 15.6 8 Norte 15 Nordeste 0 1014.2 -1.7 67
2019-04-21 13:00:00 14.8 10 Nordeste 15 Nordeste 0 1015 -1.2 72
2019-04-21 12:00:00 14.4 8 Nordeste 13 Nordeste 0 1015.5 -1 75
2019-04-21 11:00:00 13.1 4 Sur 8 Sur 0 1015.9 -0.6 71
2019-04-21 10:00:00 11.6 6 Sudoeste 8 Sudoeste 0 1016.2 0 79
2019-04-21 09:00:00 10.7 5 Sur 9 Sudoeste 0 1016.5 -0.4 81
2019-04-21 08:00:00 10.1 6 Sudoeste 13 Oeste 0 1016.5 -0.6 84
2019-04-21 07:00:00 8.8 6 Sur 9 Sudoeste 0 1016.2 -1.1 86
2019-04-21 06:00:00 9.5 7 Sur 9 Sur 0 1016.9 -1.2 84
2019-04-21 05:00:00 10.3 6 Sur 9 Sur 0 1017.1 -2 83
2019-04-21 04:00:00 10.7 5 Oeste 11 Sudeste 0 1017.3 -2.5 78
2019-04-21 03:00:00 11 4 Sur 11 Sur 0 1018.1 -1.3 79
2019-04-21 02:00:00 11.5 11 Sur 15 Sur 0 1019.1 -0.6 79
2019-04-21 01:00:00 12.5 6 Este 11 Sur 0 1019.8 0.1 75
2019-04-21 00:00:00 13 12 Sudoeste 18 Oeste 0 1019.4 0.2 72
2019-04-20 23:00:00 13.3 13 Sudoeste 17 Oeste 0 1019.7 0.8 76
2019-04-20 22:00:00 14.1 10 Sudoeste 18 Sudoeste 0 1019.7 0.9 72
2019-04-20 21:00:00 15 14 Sudoeste 18 Sudoeste 0 1019.2 0.4 68
2019-04-20 20:00:00 16 13 Sudoeste 18 Oeste 0 1018.9 -0.1 68
2019-04-20 19:00:00 18.6 11 Noroeste 21 Noroeste 0 1018.8 -0.8 53
2019-04-20 18:00:00 18.8 12 Oeste 24 Noroeste 0 1018.8 -1.4 57
2019-04-20 17:00:00 20 13 Noroeste 22 Noroeste 0 1019 -1.8 52
2019-04-20 16:00:00 19.1 10 Norte 21 Noroeste 0 1019.6 -1.7 44
2019-04-20 15:00:00 19.1 14 Noroeste 24 Noroeste 0 1020.2 -1.6 46
2019-04-20 14:00:00 19.4 12 Noroeste 22 Oeste 0 1020.8 -1 50
2019-04-20 13:00:00 18.6 11 Oeste 24 Oeste 0 1021.3 -0.8 53
2019-04-20 12:00:00 17.4 13 Oeste 26 Sudoeste 0 1021.8 -0.3 64
2019-04-20 11:00:00 16.5 17 Sudoeste 26 Sudoeste 0 1021.8 -0.3 68
2019-04-20 10:00:00 15.6 15 Sudoeste 22 Sudoeste 0 1022.1 0.1 70
2019-04-20 09:00:00 13.7 12 Sudoeste 17 Sudoeste 0 1022.1 0.1 80
2019-04-20 08:00:00 11.6 7 Sudoeste 17 Sudoeste 0 1022.1 -0.1 87
2019-04-20 07:00:00 10.7 6 Sudoeste 11 Sur 0 1022 -0.4 90
2019-04-20 06:00:00 10.5 6 Sur 9 Sudoeste 0 1022 -0.6 88
2019-04-20 05:00:00 11.3 8 Sur 9 Sur 0 1022.2 -0.3 87
2019-04-20 04:00:00 12 8 Sur 9 Sur 0 1022.4 -0.7 87
2019-04-20 03:00:00 12.7 4 Oeste 9 Sudoeste 0 1022.6 -1 82
2019-04-20 02:00:00 14 9 Sudoeste 15 Sudoeste 0 1022.5 -1.2 76
2019-04-20 01:00:00 14 10 Sur 13 Sur 0 1023.1 0.3 80
2019-04-20 00:00:00 14.9 8 Sudoeste 11 Sudoeste 0 1023.6 2 81
2019-04-19 23:00:00 15.4 2 Norte 13 Nordeste 0 1023.7 2.9 83
2019-04-19 22:00:00 15.2 9 Nordeste 15 Nordeste 0 1022.8 2.2 73
2019-04-19 21:00:00 16.7 6 Este 8 Este 0 1021.6 1.3 67
2019-04-19 20:00:00 17.5 3 Nordeste 15 Este 0 1020.8 0.5 62
2019-04-19 19:00:00 17.3 12 Nordeste 15 Nordeste 0 1020.6 0 65
2019-04-19 18:00:00 18.2 11 Nordeste 13 Nordeste 0 1020.3 -0.2 62
2019-04-19 17:00:00 17.9 7 Norte 17 Norte 0 1020.3 -0.1 65
2019-04-19 16:00:00 17.3 11 Norte 17 Nordeste 0 1020.6 -- 68
2019-04-19 15:00:00 16.7 10 Norte 18 Nordeste 0 1020.5 -- 73
2019-04-19 14:00:00 17.4 15 Nordeste -- -- -- 1020.4 1 75
2019-04-19 13:00:00 -- -- -- -- -- -- -- -- --
2019-04-19 12:00:00 1.6 3 Este 5 Este 0 -- -- 67
2019-04-19 11:00:00 18.7 3 Sudoeste 9 Oeste 0 1019.4 1.3 82
2019-04-19 10:00:00 17.3 0 Calma -- -- 0 1018.7 1.3 87
2019-04-19 09:00:00 16.7 4 Sudoeste 13 Sur 0 1018.3 1.5 90
2019-04-19 08:00:00 16.6 8 Sudeste 13 Sur 0 1018.1 1.6 87
2019-04-19 07:00:00 16.8 5 Sur 9 Sur 0 1017.4 1.4 88
2019-04-19 06:00:00 17 6 Sur 8 Sur 0 1016.8 0.4 88
2019-04-19 05:00:00 17.2 4 Sudoeste 13 Sudoeste 0 1016.5 0.1 86
2019-04-19 04:00:00 17.5 7 Sudoeste 11 Sur 0 1016 -0.4 85
2019-04-19 03:00:00 17.7 3 Nordeste 11 Sudoeste 0 1016.4 0.3 84
2019-04-19 02:00:00 18.1 9 Sudoeste 11 Sudoeste 0 1016.4 0.8 80
2019-04-19 01:00:00 18.4 4 Sur 8 Oeste 0 1016.4 1 79
2019-04-19 00:00:00 18.6 2 Oeste 8 Oeste 0 1016.1 1.2 75
2019-04-18 23:00:00 19.1 2 Oeste 9 Oeste 0 1015.6 1.2 72
2019-04-18 22:00:00 19.6 5 Sudoeste 9 Oeste 0 1015.4 1.1 70
2019-04-18 21:00:00 19.8 3 Norte 8 Norte 0 1014.9 0.5 69
2019-04-18 20:00:00 19.8 5 Nordeste 11 Nordeste 0 1014.4 -0.1 69
2019-04-18 19:00:00 19.7 8 Nordeste 18 Nordeste 0 1014.3 -0.1 74
2019-04-18 18:00:00 20.6 12 Norte 22 Norte 0 1014.4 -0.1 68
2019-04-18 17:00:00 21.8 13 Norte 21 Norte 0 1014.5 0.3 63
2019-04-18 16:00:00 22.5 13 Norte 17 Norte 0 1014.4 0.3 61
2019-04-18 15:00:00 21.4 3 Nordeste 11 Nordeste 0 1014.5 0.2 65
2019-04-18 14:00:00 19.7 5 Nordeste 15 Nordeste 0 1014.2 0.5 78
2019-04-18 13:00:00 20.1 9 Norte 21 Noroeste 0 1014.1 1.3 72
2019-04-18 12:00:00 20.6 8 Noroeste 22 Oeste 0 1014.3 2.6 66
2019-04-18 11:00:00 22 11 Oeste 22 Sudoeste 0 1013.7 2.8 51
2019-04-18 10:00:00 21.3 8 Oeste 13 Oeste 0 1012.8 2.9 52
2019-04-18 09:00:00 22.1 3 Norte 17 Sudeste 0 1011.7 1.5 50
2019-04-18 08:00:00 23.8 12 Sur 22 Sur 0 1010.9 0.8 39
2019-04-18 07:00:00 23.9 15 Sur 39 Sur 0 1009.9 -0.1 37
2019-04-18 06:00:00 21.8 12 Sur 28 Sur 0 1010.2 -0.4 54
2019-04-18 05:00:00 21.1 14 Sur 30 Sudeste 0 1010.1 -0.4 62
2019-04-18 04:00:00 23.5 22 Sudeste 30 Sudeste 0 1010 -0.6 46
2019-04-18 03:00:00 22.4 6 Sur 18 Sudeste 0 1010.6 0.5 56
2019-04-18 02:00:00 23.6 17 Sudeste 22 Sudeste 0 1010.5 1.6 49
2019-04-18 01:00:00 22.3 10 Sudeste 15 Este 0 1010.6 2.5 64
2019-04-18 00:00:00 22.1 6 Sur 18 Este 0 1010.1 2.4 72
2019-04-17 23:00:00 22.7 17 Este 21 Este 0 1008.9 1.8 69
2019-04-17 22:00:00 23.1 8 Este 18 Este 0 1008.1 1 66
2019-04-17 21:00:00 23.4 10 Norte 15 Norte 0 1007.7 0 68
2019-04-17 20:00:00 24.9 12 Nordeste 30 Este 0 1007.1 -1.1 61
2019-04-17 19:00:00 26.4 13 Nordeste 28 Sudeste 0 1007.1 -1.9 54
2019-04-17 18:00:00 28.5 13 Sudeste 28 Este 0 1007.7 -1.5 34
2019-04-17 17:00:00 27.7 9 Sur 30 Sur 0 1008.2 -1.1 33
2019-04-17 16:00:00 27.7 16 Sudeste 33 Este 0 1009 -1.2 33
2019-04-17 15:00:00 26.8 8 Nordeste 35 Sur 0 1009.2 -1.5 37
2019-04-17 14:00:00 26 26 Sur 46 Sur 0 1009.3 -1.4 36
2019-04-17 13:00:00 24.4 28 Sur 48 Sudeste 0 1010.2 -0.5 37
2019-04-17 12:00:00 23.7 10 Sudeste 26 Este 0 1010.7 0.2 41
2019-04-17 11:00:00 22.9 15 Este 30 Sudeste 0 1010.7 0 44
2019-04-17 10:00:00 22.4 16 Sudeste 30 Sudeste 0 1010.7 -0.1 44
2019-04-17 09:00:00 22.7 17 Este 35 Este 0 1010.5 -0.2 42
2019-04-17 08:00:00 22.3 15 Sur 42 Sur 0 1010.7 -0.6 41
2019-04-17 07:00:00 19.6 12 Sur 32 Sur 0 1010.8 -1.4 54
2019-04-17 06:00:00 22.1 15 Sur 41 Sur 0 1010.7 -2.2 42
2019-04-17 05:00:00 19.6 9 Sur 15 Sur 0 1011.3 -2.1 57
2019-04-17 04:00:00 15.3 5 Sudoeste 17 Sur 0 1012.2 -1.6 85
2019-04-17 03:00:00 15.6 6 Sudoeste 15 Sur 0 1012.9 -1.5 83
2019-04-17 02:00:00 16.1 5 Sudoeste 21 Este 0 1013.4 -1.4 82
2019-04-17 01:00:00 18.6 18 Este 21 Este 0 1013.8 -1.4 69
2019-04-17 00:00:00 17.9 6 Nordeste 13 Nordeste 0 1014.4 -0.6 77
2019-04-16 23:00:00 18.8 8 Norte 11 Norte 0 1014.8 -0.2 70
2019-04-16 22:00:00 19.6 4 Norte 17 Este 0 1015.2 -0.4 66
2019-04-16 21:00:00 21.1 13 Nordeste 24 Este 0 1015 -1.3 60
2019-04-16 20:00:00 19 17 Nordeste 26 Nordeste 0 1015 -2 61
2019-04-16 19:00:00 17.3 20 Nordeste 30 Nordeste 0 1015.6 -2 76
2019-04-16 18:00:00 17.3 22 Nordeste 32 Nordeste 0 1016.3 -2 75
2019-04-16 17:00:00 17.6 17 Nordeste 30 Nordeste 0 1017 -1.9 73
2019-04-16 16:00:00 17.7 20 Nordeste 28 Nordeste 0 1017.6 -1.9 73
2019-04-16 15:00:00 17 14 Norte 22 Nordeste 0 1018.3 -1.8 72
2019-04-16 14:00:00 16.7 14 Norte 21 Nordeste 0 1018.9 -1.1 71
2019-04-16 13:00:00 16.6 13 Norte 18 Nordeste 0 1019.5 -0.5 70
2019-04-16 12:00:00 16.8 11 Nordeste 15 Nordeste 0 1020.1 0.1 68
2019-04-16 11:00:00 16.7 10 Nordeste 13 Nordeste 0 1020 1.1 72
2019-04-16 10:00:00 14.9 7 Sur 11 Sur 0 1020 1 80
2019-04-16 09:00:00 12.7 7 Sur 11 Sudoeste 0 1020 1.3 95
2019-04-16 08:00:00 12.3 10 Sudeste 13 Sur 0 1018.9 0.4 94
2019-04-16 07:00:00 12.7 10 Sur 15 Oeste 0.2 1019 0.8 93
2019-04-16 06:00:00 12.7 13 Oeste 30 Oeste 0.6 1018.7 0.8 91
2019-04-16 05:00:00 13.5 0 Calma 26 Sudoeste 0.2 1018.5 0.5 90
2019-04-16 04:00:00 13.8 10 Sudoeste 21 Sudoeste 0 1018.2 0.3 93
2019-04-16 03:00:00 13.8 8 Sudoeste 15 Sudoeste 0 1017.9 0.8 93
2019-04-16 02:00:00 14 9 Sudoeste 26 Oeste 0 1018 1.5 92
2019-04-16 01:00:00 13.9 10 Sudoeste 17 Sudoeste 0.5 1017.9 2.3 94
2019-04-16 00:00:00 14.2 11 Sudoeste 17 Sudoeste 0.9 1017.1 2.5 94
2019-04-15 23:00:00 14.4 9 Sudoeste 18 Oeste 0.8 1016.5 3.8 93
2019-04-15 22:00:00 14.5 12 Sudoeste 28 Sudoeste 3.1 1015.6 4.3 93
2019-04-15 21:00:00 15.2 13 Oeste 46 Sudoeste 4.7 1014.6 6.4 89
2019-04-15 20:00:00 15.6 26 Oeste 48 Oeste 6.5 1012.7 7.5 92
2019-04-15 19:00:00 16.9 15 Sudoeste 65 Oeste 9.8 1011.3 5.3 93
2019-04-15 18:00:00 19 35 Oeste 71 Oeste 0.1 1008.2 1.5 75
2019-04-15 17:00:00 26.3 16 Sur 24 Sur 0 1005.2 -1.9 40
2019-04-15 16:00:00 25.5 3 Sur 15 Este 0 1006 -1.3 43
2019-04-15 15:00:00 24.2 11 Este 32 Sur 0 1006.7 -1.2 48
2019-04-15 14:00:00 24.6 15 Sur 42 Sur 0 1007.1 -1.7 43
2019-04-15 13:00:00 25.6 14 Sur 37 Sur 0 1007.3 -2.4 40
2019-04-15 12:00:00 24.5 16 Sur 28 Sur 0 1007.9 -2.1 43
2019-04-15 11:00:00 21 9 Sur 15 Sur 0 1008.8 -1.8 59
2019-04-15 10:00:00 16.5 5 Sur 9 Sur 0 1009.7 -1.7 82
2019-04-15 09:00:00 13.1 6 Sur 11 Sur 0 1010 -1.7 92
2019-04-15 08:00:00 11.1 4 Oeste 9 Sur 0 1010.6 -1.6 94
2019-04-15 07:00:00 10.7 6 Sur 11 Sur 0 1011.4 -1.8 93
2019-04-15 06:00:00 10.7 0 Calma 8 Sudoeste 0 1011.7 -2.2 92
2019-04-15 05:00:00 11.1 4 Oeste 11 Sudoeste 0 1012.2 -2.9 91
2019-04-15 04:00:00 11.2 6 Sur 9 Oeste 0 1013.2 -2.7 91
2019-04-15 03:00:00 11.3 4 Oeste 9 Sudoeste 0 1013.9 -2.4 90
2019-04-15 02:00:00 11.6 4 Sudoeste 9 Sudoeste 0 1015.1 -1.1 89
2019-04-15 01:00:00 12.4 3 Sudoeste 8 Oeste 0 1015.9 -0.6 87
2019-04-15 00:00:00 13.1 5 Sur 8 Sur 0 1016.3 0.4 85
2019-04-14 23:00:00 14 2 Sudoeste 5 Sur 0 1016.2 0.6 83
2019-04-14 22:00:00 14.9 6 Norte 13 Norte 0 1016.5 0.5 81
2019-04-14 21:00:00 15.6 9 Norte 17 Norte 0 1015.9 -0.6 78
2019-04-14 20:00:00 17.2 6 Norte 11 Norte 0 1015.6 -1.5 64
2019-04-14 19:00:00 18.1 3 Nordeste 5 Norte 0 1016 -1.3 56
2019-04-14 18:00:00 16.7 2 Sur 8 Este 0 1016.5 -0.2 59
2019-04-14 17:00:00 15.4 2 Este 17 Norte 0 1017.1 -0.1 62
2019-04-14 16:00:00 15.2 12 Norte 21 Norte 0 1017.3 0.2 67
2019-04-14 15:00:00 16.4 14 Nordeste 17 Norte 0 1016.7 -0.1 73
2019-04-14 14:00:00 15.6 12 Norte 18 Nordeste 0 1017.2 0.8 78
2019-04-14 13:00:00 15.4 12 Nordeste 17 Nordeste 0 1017.1 0.7 74
2019-04-14 12:00:00 15.8 8 Norte 11 Nordeste 0 1016.8 0.2 70
2019-04-14 11:00:00 14.6 4 Este 5 Este 0 1016.4 0 63
2019-04-14 10:00:00 13.3 4 Sur 11 Sur 0 1016.4 0.3 76
2019-04-14 09:00:00 12.2 6 Sudoeste 9 Sudoeste 0 1016.6 0.6 76
2019-04-14 08:00:00 11.8 4 Oeste 9 Sur 0 1016.4 0.3 77
2019-04-14 07:00:00 11.6 6 Oeste 8 Oeste 0 1016.1 0.1 79
2019-04-14 06:00:00 11.5 5 Sudoeste 11 Sur 0 1016 -0.2 75
2019-04-14 05:00:00 11.4 6 Sur 8 Sur 0 1016.1 -0.3 78
2019-04-14 04:00:00 10.9 4 Sur 8 Sur 0 1016 -0.8 84
2019-04-14 03:00:00 11 4 Sur 9 Sur 0 1016.2 -0.8 81
2019-04-14 02:00:00 11.3 4 Sur 9 Sur 0 1016.4 -0.8 83
2019-04-14 01:00:00 11.3 7 Sur 9 Sur 0 1016.8 -0.2 86
2019-04-14 00:00:00 11.4 8 Sur 9 Sur 0 1017 0.7 82
2019-04-13 23:00:00 11.8 9 Sudoeste 13 Sudoeste 0 1017.2 0.7 78
2019-04-13 22:00:00 13.6 6 Oeste 9 Oeste 0 1017 0.5 78
2019-04-13 21:00:00 15.1 4 Noroeste 11 Nordeste 0 1016.3 -0.8 73
2019-04-13 20:00:00 16 13 Nordeste 18 Norte 0 1016.5 -0.8 71
2019-04-13 19:00:00 17.4 14 Nordeste 18 Norte 0 1016.5 -1.1 61
2019-04-13 18:00:00 17.1 14 Nordeste 22 Nordeste 0 1017.1 -1.1 63
2019-04-13 17:00:00 17 14 Nordeste 26 Nordeste 0 1017.3 -1.4 64
2019-04-13 16:00:00 17.8 13 Norte 22 Nordeste 0 1017.6 -1.7 58
2019-04-13 15:00:00 17.4 14 Norte 21 Norte 0 1018.2 -1.6 61
2019-04-13 14:00:00 16.4 13 Norte 22 Nordeste 0 1018.7 -1.3 62
2019-04-13 13:00:00 15.3 13 Norte 21 Nordeste 0 1019.3 -0.8 63
2019-04-13 12:00:00 14.4 10 Norte 17 Norte 0 1019.8 -0.3 62
2019-04-13 11:00:00 13.2 2 Norte 8 Norte 0 1020 0 62
2019-04-13 10:00:00 9.4 5 Sur 9 Sudeste 0 1020.1 0.4 76
2019-04-13 09:00:00 7.1 5 Sur 9 Sur 0 1020.1 0.4 86
2019-04-13 08:00:00 5.7 6 Sur 11 Sur 0 1020 0 90
2019-04-13 07:00:00 5 8 Sur 11 Sur 0 1019.7 -0.3 89
2019-04-13 06:00:00 6.1 5 Sur 11 Sur 0 1019.7 -0.8 87
2019-04-13 05:00:00 6.3 10 Sur 11 Sur 0 1020 -0.9 88
2019-04-13 04:00:00 6.6 8 Sur 9 Sur 0 1020 -1.1 87
2019-04-13 03:00:00 7.4 4 Sudoeste 9 Sur 0 1020.5 -0.5 85
2019-04-13 02:00:00 7.5 7 Sur 9 Sur 0 1020.9 0 85
2019-04-13 01:00:00 8.7 5 Sur 8 Sur 0 1021.1 0.4 82
2019-04-13 00:00:00 9.3 5 Sudoeste 9 Sur 0 1021 0.6 81
2019-04-12 23:00:00 10 8 Sur 9 Sur 0 1020.9 0.6 78
2019-04-12 22:00:00 11.3 8 Sur 9 Sur 0 1020.7 0.5 72
2019-04-12 21:00:00 13.2 4 Oeste 13 Noroeste 0 1020.4 0.1 63
2019-04-12 20:00:00 14.9 7 Norte 13 Noroeste 0 1020.3 0 52
2019-04-12 19:00:00 16.2 11 Norte 17 Norte 0 1020.2 -0.7 50
2019-04-12 18:00:00 16.3 9 Noroeste 21 Noroeste 0 1020.3 -1.2 51
2019-04-12 17:00:00 16.6 10 Norte 21 Norte 0 1020.3 -0.9 57
2019-04-12 16:00:00 17.2 15 Noroeste 28 Oeste 0 1020.9 -0.3 63
2019-04-12 15:00:00 17.1 15 Noroeste 28 Noroeste 0 1021.5 0 64
2019-04-12 14:00:00 17.2 12 Noroeste 28 Noroeste 0 1021.2 -0.2 62
2019-04-12 13:00:00 16.6 10 Noroeste 18 Noroeste 0 1021.2 0 62
2019-04-12 12:00:00 15.8 13 Noroeste 22 Norte 0 1021.5 0.4 65
2019-04-12 11:00:00 14.6 12 Noroeste 21 Noroeste 0 1021.4 0.6 70
2019-04-12 10:00:00 14.1 10 Noroeste 18 Noroeste 0 1021.2 0.6 71
2019-04-12 09:00:00 12.7 7 Noroeste 15 Noroeste 0 1021.1 0.5 78
2019-04-12 08:00:00 12.2 7 Noroeste 17 Noroeste 0 1020.8 0.1 76
2019-04-12 07:00:00 12.4 6 Noroeste 15 Norte 0 1020.6 -0.2 80
2019-04-12 06:00:00 12.5 7 Noroeste 11 Noroeste 0 1020.6 -0.5 81
2019-04-12 05:00:00 12.5 4 Oeste 11 Oeste 0 1020.7 -0.8 82
2019-04-12 04:00:00 12.5 8 Noroeste 15 Noroeste 0 1020.8 -0.8 82
2019-04-12 03:00:00 12.5 8 Noroeste 18 Norte 0 1021.1 -0.5 82
2019-04-12 02:00:00 12.6 8 Noroeste 17 Noroeste 0 1021.5 -0.2 82
2019-04-12 01:00:00 12.7 9 Noroeste 18 Oeste 0 1021.6 0.2 82
2019-04-12 00:00:00 12.7 7 Noroeste 17 Noroeste 0 1021.6 0.9 83
2019-04-11 23:00:00 12.8 8 Noroeste 17 Noroeste 0 1021.7 1.3 80
2019-04-11 22:00:00 12.4 6 Noroeste 18 Noroeste 0 1021.4 1.1 81
2019-04-11 21:00:00 12.9 11 Noroeste 30 Oeste 0.1 1020.7 0.7 82
2019-04-11 20:00:00 13.9 13 Oeste 30 Oeste 0 1020.4 0.7 74
2019-04-11 19:00:00 14.6 13 Noroeste 26 Oeste 0 1020.3 0.6 69
2019-04-11 18:00:00 14.8 15 Noroeste 26 Noroeste 0 1020 0.1 72
2019-04-11 17:00:00 16 15 Noroeste 30 Noroeste 0 1019.7 -0.2 68
2019-04-11 16:00:00 15.6 15 Noroeste 26 Oeste 0 1019.7 -0.3 73
2019-04-11 15:00:00 15.3 17 Oeste 30 Oeste 0 1019.9 -0.1 72
2019-04-11 14:00:00 14.6 15 Oeste 26 Oeste 0 1019.9 0.2 73
2019-04-11 13:00:00 13.8 12 Noroeste 22 Noroeste 0 1020 0.6 78
2019-04-11 12:00:00 13.8 14 Oeste 30 Oeste 0 1020 0.8 76
2019-04-11 11:00:00 13.2 18 Noroeste 33 Oeste 0 1019.7 1.1 82
2019-04-11 10:00:00 12.3 12 Oeste 26 Noroeste 0.5 1019.4 1.1 83
2019-04-11 09:00:00 11.9 14 Oeste 30 Oeste 0 1019.2 0.5 83
2019-04-11 08:00:00 12.2 18 Oeste 33 Noroeste 1 1018.6 -0.1 85
2019-04-11 07:00:00 12.8 9 Oeste 21 Oeste 0.1 1018.3 -0.3 78
2019-04-11 06:00:00 12.4 9 Oeste 17 Noroeste 0 1018.7 0.1 79
2019-04-11 05:00:00 12.3 8 Noroeste 21 Noroeste 0 1018.7 -0.2 78
2019-04-11 04:00:00 12.7 10 Noroeste 21 Noroeste 0 1018.6 -0.3 77
2019-04-11 03:00:00 12.8 10 Noroeste 17 Norte 0 1018.6 0.1 78
2019-04-11 02:00:00 13.1 10 Noroeste 21 Norte 0 1018.9 0.6 80
2019-04-11 01:00:00 13 10 Noroeste 21 Noroeste 0 1018.9 1 80
2019-04-11 00:00:00 13.2 11 Noroeste 22 Norte 0 1018.5 1.4 80
2019-04-10 23:00:00 13.3 11 Noroeste 24 Norte 0 1018.3 1.6 81
2019-04-10 22:00:00 13.8 11 Noroeste 22 Noroeste 0 1017.9 1.6 81
2019-04-10 21:00:00 13.9 10 Noroeste 21 Noroeste 0 1017.1 1.2 78
2019-04-10 20:00:00 14 10 Noroeste 21 Oeste 0 1016.7 1.1 74
2019-04-10 19:00:00 14.8 9 Noroeste 24 Sudoeste 0 1016.3 1.1 75
2019-04-10 18:00:00 16.1 14 Oeste 33 Oeste 0 1015.9 0.7 69
2019-04-10 17:00:00 16.1 20 Oeste 30 Noroeste 0 1015.6 0.7 68
2019-04-10 16:00:00 16.7 12 Oeste 28 Sudoeste 0 1015.2 0.4 64
2019-04-10 15:00:00 16.3 14 Oeste 28 Noroeste 0 1015.2 0.4 66
2019-04-10 14:00:00 15.6 11 Oeste 18 Oeste 0 1014.9 0.3 68
2019-04-10 13:00:00 13.4 12 Sudoeste 21 Sudoeste 0 1014.8 0.5 81
2019-04-10 12:00:00 11.8 15 Sudoeste 22 Sudoeste 0 1014.8 1.3 90
2019-04-10 11:00:00 10.7 12 Sudoeste 15 Sudoeste 3 1014.6 2 94
2019-04-10 10:00:00 10.7 0 Calma 17 Sudoeste 2.6 1014.3 2.1 91
2019-04-10 09:00:00 10.7 14 Sur 18 Sur 0.1 1013.5 1.6 89
2019-04-10 08:00:00 10.6 13 Sudoeste 18 Sudoeste 0 1012.6 0.8 87
2019-04-10 07:00:00 10.9 12 Sudoeste 21 Sudoeste 0.4 1012.2 0.7 86
2019-04-10 06:00:00 11.3 15 Sudoeste 21 Sudoeste 0 1011.9 0.2 84
2019-04-10 05:00:00 11.2 10 Sudoeste 17 Sudoeste 0 1011.8 0.1 82
2019-04-10 04:00:00 11.4 11 Sudoeste 15 Sudoeste 0 1011.5 -0.3 81
2019-04-10 03:00:00 11.7 11 Sudoeste 15 Sudoeste 0 1011.7 0.2 81
2019-04-10 02:00:00 11.9 13 Sudoeste 21 Sudoeste 0 1011.7 0.3 79
2019-04-10 01:00:00 12.3 10 Sudoeste 15 Sudoeste 0 1011.8 0.2 78
2019-04-10 00:00:00 12.2 11 Oeste 22 Sudoeste 0 1011.5 0.4 76
2019-04-09 23:00:00 12.3 14 Sudoeste 28 Sudoeste 0 1011.4 1 78
2019-04-09 22:00:00 12.6 18 Sudoeste 32 Oeste 0 1011.6 1.9 80
2019-04-09 21:00:00 14.2 15 Oeste 33 Oeste 0 1011.1 2.1 74
2019-04-09 20:00:00 14.6 16 Oeste 32 Oeste 0 1010.4 2 75
2019-04-09 19:00:00 15.4 15 Oeste 30 Oeste 0 1009.7 1.4 71
2019-04-09 18:00:00 16.9 10 Noroeste 18 Noroeste 0 1009 0.5 50
2019-04-09 17:00:00 16.8 14 Nordeste 18 Nordeste 0 1008.4 -0.2 60
2019-04-09 16:00:00 17.2 16 Nordeste 24 Nordeste 0 1008.3 -0.5 57
2019-04-09 15:00:00 17.5 17 Nordeste 26 Nordeste 0 1008.5 -0.6 56
2019-04-09 14:00:00 18.6 13 Nordeste 21 Oeste 0 1008.6 -0.7 46
2019-04-09 13:00:00 18.8 10 Sur 22 Sudoeste 0 1008.8 -0.7 40
2019-04-09 12:00:00 17.9 16 Oeste 24 Sudoeste 0 1009.1 -0.6 42
2019-04-09 11:00:00 15.7 7 Sudeste 9 Este 0 1009.3 -0.4 55
2019-04-09 10:00:00 11.4 5 Sudoeste 9 Sudoeste 0 1009.5 -0.1 79
2019-04-09 09:00:00 8.1 8 Sudoeste 11 Sur 0 1009.7 -0.1 92
2019-04-09 08:00:00 7 8 Sur 11 Sudoeste 0 1009.7 -0.3 94
2019-04-09 07:00:00 6.9 4 Sudoeste 9 Sur 0 1009.6 -0.8 94
2019-04-09 06:00:00 7.3 6 Sur -- -- 0 1009.8 -0.7 93
2019-04-09 05:00:00 8.1 6 Sur -- -- 0 1010 -0.7 94
2019-04-09 04:00:00 8.2 6 Sudoeste 8 Sudoeste 0 1010.4 -0.9 93
2019-04-09 03:00:00 8.8 4 Sudoeste 9 Sudoeste 0 1010.5 -1 93
2019-04-09 02:00:00 9.3 7 Sudoeste -- -- 0 1010.7 -0.9 93
2019-04-09 01:00:00 9.4 6 Sudoeste 9 Sur 0 1011.3 -0.6 92
2019-04-09 00:00:00 10.4 5 Sur 9 Sudoeste 0 1011.5 -0.3 90
2019-04-08 23:00:00 11.3 3 Oeste 5 Oeste 0 1011.6 0 87
2019-04-08 22:00:00 12.4 4 Sudoeste 5 Sur 0 1011.9 0.1 84
2019-04-08 21:00:00 13.6 6 Nordeste 9 Este 0 1011.8 -0.2 78
2019-04-08 20:00:00 14.6 7 Nordeste 11 Norte 0 1011.6 -0.6 69
2019-04-08 19:00:00 15.1 8 Nordeste 11 Nordeste 0 1011.8 -0.5 67
2019-04-08 18:00:00 15.9 9 Oeste 17 Noroeste 0 1012 -0.6 65
2019-04-08 17:00:00 16.2 10 Oeste 22 Oeste 0 1012.2 0 62
2019-04-08 16:00:00 16 9 Sudoeste 21 Sudoeste 0 1012.3 0.5 67
2019-04-08 15:00:00 14.5 13 Oeste 22 Oeste 0.1 1012.6 1 81
2019-04-08 14:00:00 14.7 11 Oeste 30 Oeste 0 1012.2 1.2 82
2019-04-08 13:00:00 13.8 17 Oeste 32 Noroeste 0.3 1011.8 1.9 89
2019-04-08 12:00:00 13.8 12 Sudoeste 21 Sudoeste 0.2 1011.6 2.2 83
2019-04-08 11:00:00 13.3 14 Sudoeste 21 Sudoeste 0.4 1011 2.4 84
2019-04-08 10:00:00 14.4 16 Sudoeste 21 Sudoeste 0 1009.9 1.7 72
2019-04-08 09:00:00 13.8 10 Sur 18 Sur 0 1009.4 1.6 73
2019-04-08 08:00:00 12.8 10 Sudoeste 17 Sur 0 1008.6 0.5 76
2019-04-08 07:00:00 10.5 9 Sudoeste 11 Sudoeste 0 1008.2 0.2 90
2019-04-08 06:00:00 9.6 8 Sur 9 Sudoeste 0 1007.8 -0.2 88
2019-04-08 05:00:00 9.8 6 Sudoeste 11 Sur 0 1008.1 -0.6 88
2019-04-08 04:00:00 10.3 4 Sudoeste 9 Sur 0 1008 -1.3 86
2019-04-08 03:00:00 10.3 3 Sudoeste 8 Oeste 0 1008 -1.4 86
2019-04-08 02:00:00 10.4 5 Oeste 11 Sur 0 1008.7 -1.2 83
2019-04-08 01:00:00 10.2 7 Sudoeste 11 Sudoeste 0 1009.3 -1 89
2019-04-08 00:00:00 10.5 8 Sudoeste -- -- 0 1009.4 -0.9 85
2019-04-07 23:00:00 11.2 5 Sur 13 Este 0 1009.9 -0.4 83
2019-04-07 22:00:00 12.9 10 Este 13 Este 0 1010.3 -0.1 72
2019-04-07 21:00:00 13.1 6 Nordeste 15 Este 0 1010.3 -0.3 72
2019-04-07 20:00:00 13.8 12 Nordeste 17 Nordeste 0 1010.3 -0.4 70
2019-04-07 19:00:00 14.4 10 Nordeste 15 Nordeste 0 1010.4 -0.3 64
2019-04-07 18:00:00 15.7 9 Norte 17 Oeste 0 1010.6 -0.3 60
2019-04-07 17:00:00 16.3 9 Noroeste 22 Noroeste 0 1010.7 -0.1 60
2019-04-07 16:00:00 15.4 15 Oeste 24 Noroeste 0 1010.7 0.4 67
2019-04-07 15:00:00 12.8 13 Sur 22 Sur 0.4 1010.9 1.3 85
2019-04-07 14:00:00 11.3 11 Oeste 26 Sudoeste 1.2 1010.8 2.1 85
2019-04-07 13:00:00 11.2 10 Sudoeste 24 Oeste 0.7 1010.3 2.3 87
2019-04-07 12:00:00 10.8 16 Sudoeste 22 Sudoeste 0.6 1009.6 2.4 88
2019-04-07 11:00:00 10.1 14 Sudoeste 22 Sudoeste 0.7 1008.7 2.6 87
2019-04-07 10:00:00 9.5 11 Sudoeste 15 Sudoeste 1 1008 2.8 87
2019-04-07 09:00:00 9.8 14 Sudoeste 21 Sudoeste 0.5 1007.2 2.6 84
2019-04-07 08:00:00 9.4 13 Sudoeste 18 Sudoeste 0 1006.1 2 87
2019-04-07 07:00:00 9.3 14 Sudoeste 18 Sudoeste 0 1005.2 1.3 92
2019-04-07 06:00:00 9.4 10 Sudoeste 13 Sudoeste 0 1004.6 1 92
2019-04-07 05:00:00 9.4 8 Sudoeste 13 Sudoeste 0.2 1004.1 0.8 92
2019-04-07 04:00:00 9.5 9 Sudoeste 13 Sudoeste 0 1003.9 1 92
2019-04-07 03:00:00 9.7 10 Sudoeste 13 Sudoeste 0.5 1003.6 1.3 91
2019-04-07 02:00:00 9.7 4 Norte 13 Sudoeste 0.2 1003.3 1.4 91
2019-04-07 01:00:00 9.6 7 Sudoeste 13 Sudoeste 0.3 1002.9 2.6 91
2019-04-07 00:00:00 9.9 12 Sudoeste 28 Sudoeste 2.3 1002.3 3.2 90
2019-04-06 23:00:00 11.4 14 Oeste 37 Oeste 0 1001.9 3.4 73
2019-04-06 22:00:00 12.3 26 Oeste 39 Oeste 0 1000.3 2.5 73
2019-04-06 21:00:00 13.5 10 Nordeste 21 Nordeste 0 999.1 1.6 69
2019-04-06 20:00:00 14.5 13 Nordeste 18 Nordeste 0 998.5 1.7 60
2019-04-06 19:00:00 14.8 13 Nordeste 24 Nordeste 0 997.8 0.8 56
2019-04-06 18:00:00 14.8 21 Nordeste 30 Nordeste 0 997.5 0.4 60
2019-04-06 17:00:00 19.2 13 Oeste 32 Sudoeste 0 996.8 -0.4 31
2019-04-06 16:00:00 18.7 20 Oeste 39 Oeste 0 997 -0.6 32
2019-04-06 15:00:00 17.9 22 Sudoeste 37 Oeste 0 997.1 -1 35
2019-04-06 14:00:00 17.5 22 Sudoeste 37 Sudoeste 0 997.2 -1.1 38
2019-04-06 13:00:00 16.6 19 Sudoeste 30 Sudoeste 0 997.6 -0.7 43
2019-04-06 12:00:00 14.7 14 Sur 22 Sudoeste 0 998.1 -0.4 50
2019-04-06 11:00:00 12.9 13 Sudoeste 21 Sur 0 998.3 0 63
2019-04-06 10:00:00 10.4 10 Sudoeste 15 Sudoeste 0 998.3 0.3 78
2019-04-06 09:00:00 9.2 8 Sudoeste 15 Sur 0 998.5 0.2 86
2019-04-06 08:00:00 8.8 12 Sur 21 Sudoeste 0 998.3 0 88
2019-04-06 07:00:00 8.7 16 Sudoeste 24 Sudoeste 0 998 -0.1 90
2019-04-06 06:00:00 8.4 14 Sudoeste 28 Sudoeste 0.6 998.3 0 93
2019-04-06 05:00:00 9.1 14 Sudoeste 22 Oeste 0 998.3 -0.1 92
2019-04-06 04:00:00 9.1 9 Sur 11 Sur 0 998.1 0 92
2019-04-06 03:00:00 9.2 9 Sur 13 Sur 0 998.3 -0.2 93
2019-04-06 02:00:00 9.3 7 Sudeste 13 Sur 0 998.4 -0.5 92
2019-04-06 01:00:00 9.2 6 Sudoeste 18 Sudeste 0.1 998.1 -0.5 93
2019-04-06 00:00:00 9.2 13 Sudeste 17 Sudeste 0.5 998.5 0.4 94
2019-04-05 23:00:00 9.5 6 Sudeste 9 Sudeste 0.8 998.9 1.5 92
2019-04-05 22:00:00 9.4 3 Sudeste 11 Oeste 3.4 998.6 1.3 91
2019-04-05 21:00:00 9.8 11 Sudoeste 18 Sudoeste 2.1 998.1 1 89
2019-04-05 20:00:00 9.9 6 Sudoeste 15 Oeste 1.9 997.4 1.4 88
2019-04-05 19:00:00 10.1 15 Sudoeste 30 Sudoeste 1.4 997.3 1.2 86
2019-04-05 18:00:00 11.2 23 Sudoeste 42 Oeste 0.1 997.1 0.6 80
2019-04-05 17:00:00 15.4 15 Noroeste 22 Oeste 0 996 -0.2 54
2019-04-05 16:00:00 16.5 14 Sur 32 Sur 0 996.1 -0.8 46
2019-04-05 15:00:00 16.2 24 Sur 37 Sudoeste 0 996.5 -0.6 47
2019-04-05 14:00:00 15.2 20 Sur 35 Sur 0 996.2 -0.7 50
2019-04-05 13:00:00 15 11 Sur 24 Sudeste 0 996.9 0.2 50
2019-04-05 12:00:00 14.2 13 Sur 32 Sur 0 997.1 0.8 51
2019-04-05 11:00:00 13.5 14 Sur 37 Sur 0 996.9 0.9 52
2019-04-05 10:00:00 13.5 16 Sur 28 Sur 0 996.7 1 51
2019-04-05 09:00:00 13.8 14 Sur 35 Sudoeste 0 996.3 0.4 47
2019-04-05 08:00:00 14.4 27 Sur 42 Sur 0 996 -0.1 41
2019-04-05 07:00:00 14.5 21 Sur 33 Sur 0 995.7 -0.7 38
2019-04-05 06:00:00 10.9 8 Oeste 18 Oeste 0 995.9 -0.9 59
2019-04-05 05:00:00 10.4 7 Oeste 11 Noroeste 0 996.1 -1.6 67
2019-04-05 04:00:00 11.4 3 Noroeste 11 Nordeste 0 996.4 -1.5 60
2019-04-05 03:00:00 12 4 Oeste 21 Sur 0 996.8 -1.3 54
2019-04-05 02:00:00 11 6 Sudoeste 18 Sur 0 997.7 -0.6 70
2019-04-05 01:00:00 11.3 6 Oeste 11 Sur 0 997.9 -0.5 65
2019-04-05 00:00:00 11.6 4 Noroeste 8 Oeste 0 998.1 -0.2 68
2019-04-04 23:00:00 11.7 0 Calma 9 Noroeste 0 998.3 -0.3 65
2019-04-04 22:00:00 11.8 6 Oeste 9 Noroeste 0 998.4 -0.7 72
2019-04-04 21:00:00 12.8 3 Sudoeste 9 Sur 0 998.3 -1.1 71
2019-04-04 20:00:00 13.6 0 Calma 21 Este 0 998.6 -1.4 63
2019-04-04 19:00:00 13.5 14 Nordeste 26 Nordeste 0 999.1 -2 63
2019-04-04 18:00:00 13 22 Nordeste 26 Nordeste 0 999.4 -2.8 62
2019-04-04 17:00:00 13.8 18 Nordeste 24 Nordeste 0 1000 -3.2 55
2019-04-04 16:00:00 13.2 13 Norte 17 Norte 0 1001.1 -2.8 54
2019-04-04 15:00:00 14.3 9 Sudoeste 28 Sudoeste 0 1002.2 -1.9 43
2019-04-04 14:00:00 12.9 12 Sudoeste 24 Sudoeste 0 1003.2 -0.9 51
2019-04-04 13:00:00 11.6 15 Sudoeste 32 Sudoeste 0 1003.9 0 57
2019-04-04 12:00:00 11.3 15 Sudoeste 26 Sudoeste -- 1004.1 0.3 61
2019-04-04 11:00:00 10.6 17 Sudoeste 30 Sudoeste 0 1004.1 0.6 64
2019-04-04 10:00:00 8.6 16 Sudoeste 28 Sudoeste 0 1003.9 0.2 74
2019-04-04 09:00:00 6.5 14 Sudoeste 22 Sudoeste 0 1003.8 0.2 85
2019-04-04 08:00:00 5.2 16 Sudoeste 24 Sudoeste 0.5 1003.5 0.4 90
2019-04-04 07:00:00 5.2 19 Sudoeste 42 Sudoeste 2.8 1003.7 0 88
2019-04-04 06:00:00 6.1 22 Sudoeste 33 Sudoeste 0.2 1003.6 -0.4 81
2019-04-04 05:00:00 5.8 16 Sudoeste 30 Sudoeste 0 1003.1 -1.7 86
2019-04-04 04:00:00 5.6 20 Sudoeste 33 Sudoeste 0.6 1003.7 -1.7 87
2019-04-04 03:00:00 5.8 22 Sudoeste 33 Sudoeste 1.1 1004 -1.5 86
2019-04-04 02:00:00 5.7 18 Sudoeste 30 Sudoeste 2.3 1004.8 -1.2 89
2019-04-04 01:00:00 5.3 14 Sudoeste 37 Sudoeste 1.7 1005.4 -0.5 89
2019-04-04 00:00:00 5.5 29 Sudoeste 45 Sudoeste 0.6 1005.5 0 87
2019-04-03 23:00:00 6 24 Sudoeste 41 Sudoeste 0.7 1006 0.5 84
2019-04-03 22:00:00 6.4 28 Sudoeste 45 Sudoeste 1 1005.9 0.4 83
2019-04-03 21:00:00 6.9 24 Sudoeste 61 Oeste 1.1 1005.5 -1.2 83
2019-04-03 20:00:00 8.7 20 Oeste 48 Sudoeste 0.5 1005.5 -1 75
2019-04-03 19:00:00 8.6 17 Sudoeste 32 Sudoeste 0.3 1005.5 -1.3 80
2019-04-03 18:00:00 7.5 31 Oeste 59 Oeste 1.5 1006.7 -1 79
2019-04-03 17:00:00 9 26 Oeste 45 Noroeste 0 1006.5 -1.6 77
2019-04-03 16:00:00 7.6 19 Sudoeste 58 Sudoeste 1.7 1006.8 -0.9 84
2019-04-03 15:00:00 8.1 25 Oeste 45 Sudoeste 4.6 1007.7 -1.3 84
2019-04-03 14:00:00 8.2 16 Oeste 50 Noroeste 1.2 1008.1 -0.6 85
2019-04-03 13:00:00 9.9 22 Sudoeste 48 Noroeste 0.4 1007.7 -0.8 80
2019-04-03 12:00:00 8.6 30 Oeste 42 Noroeste 1.2 1009 -0.2 82
2019-04-03 11:00:00 8.9 17 Oeste 33 Oeste 0.9 1008.7 -0.4 81
2019-04-03 10:00:00 9 20 Sur 35 Oeste 0.8 1008.5 -0.7 86
2019-04-03 09:00:00 8.8 21 Oeste 37 Noroeste 1.6 1009.2 -0.6 84
2019-04-03 08:00:00 9.1 21 Oeste 37 Oeste 3 1009.1 -1.1 82
2019-04-03 07:00:00 9.7 20 Oeste 39 Oeste 1.3 1009.2 -1.7 86
2019-04-03 06:00:00 9.6 17 Oeste 37 Noroeste 2.1 1009.8 -2.2 86
2019-04-03 05:00:00 9.7 14 Sudoeste 18 Oeste 0 1010.2 -2.8 86
2019-04-03 04:00:00 10 14 Sudoeste 26 Sudoeste 0 1010.9 -2.9 87
2019-04-03 03:00:00 10.2 15 Sudoeste 22 Sudoeste 0.6 1012 -2 91
2019-04-03 02:00:00 10.4 17 Sudoeste 30 Sudoeste 0.6 1013 -1.2 91
2019-04-03 01:00:00 10.9 17 Sudoeste 24 Oeste 0.8 1013.8 -0.2 89
2019-04-03 00:00:00 11.7 11 Sudoeste 18 Oeste 1.3 1014 0.1 85
2019-04-02 23:00:00 12.2 12 Oeste 24 Oeste 2.1 1014.2 0 87
2019-04-02 22:00:00 13.1 6 Oeste 13 Oeste 0.8 1014 -0.4 83
2019-04-02 21:00:00 13.6 10 Oeste 18 Oeste 0.1 1013.9 -0.7 82
2019-04-02 20:00:00 14.2 11 Oeste 21 Oeste 0 1014.2 -0.9 73
2019-04-02 19:00:00 14.7 11 Oeste 21 Noroeste 0 1014.4 -0.9 72
2019-04-02 18:00:00 15.5 13 Noroeste 24 Noroeste 0 1014.6 -1.2 68
2019-04-02 17:00:00 15.5 14 Oeste 28 Oeste 0 1015.1 -1 69
2019-04-02 16:00:00 15.3 14 Noroeste 30 Oeste 0 1015.3 -1.4 73
2019-04-02 15:00:00 15.6 18 Oeste 30 Oeste 0 1015.8 -1 70
2019-04-02 14:00:00 15.9 20 Oeste 33 Oeste 0 1016.1 -0.5 73
2019-04-02 13:00:00 14.8 14 Oeste 32 Sudoeste 0 1016.7 0.9 78
2019-04-02 12:00:00 14.8 13 Oeste 30 Sudoeste 0 1016.8 1.3 75
2019-04-02 11:00:00 14.3 17 Sudoeste 30 Oeste 0 1016.6 1.4 77
2019-04-02 10:00:00 14.7 12 Sudoeste 17 Oeste 0 1015.8 0.9 79
2019-04-02 09:00:00 13.2 11 Sudoeste 17 Sudoeste 0 1015.5 0.8 89
2019-04-02 08:00:00 12.9 12 Sudoeste 15 Sudoeste 0 1015.2 0.4 91
2019-04-02 07:00:00 12.8 9 Sudoeste 13 Sudoeste 0 1014.9 -0.2 93
2019-04-02 06:00:00 12.8 9 Sur 11 Sudoeste 0 1014.7 -0.6 94
2019-04-02 05:00:00 13 8 Sudoeste 13 Sudoeste 0 1014.8 -0.7 94
2019-04-02 04:00:00 13.4 7 Oeste 11 Sudoeste 2.7 1015.1 -0.3 91
2019-04-02 03:00:00 13.6 6 Sudoeste 9 Sudoeste 0 1015.3 0.1 87
2019-04-02 02:00:00 13.5 4 Sur 8 Sur 0 1015.5 0.4 83
2019-04-02 01:00:00 13.5 3 Sur -- -- 0 1015.4 0.6 86
2019-04-02 00:00:00 13.7 4 Sur 8 Sur 0 1015.2 0.8 87
2019-04-01 23:00:00 14.2 4 Oeste 5 Noroeste 0 1015.1 1.3 85
2019-04-01 22:00:00 14.5 3 Este 8 Nordeste 0 1014.8 1.4 83
2019-04-01 21:00:00 14.7 5 Nordeste 9 Nordeste 0 1014.4 1 81
2019-04-01 20:00:00 15.1 5 Norte 9 Nordeste 0 1013.8 0.4 79
2019-04-01 19:00:00 15.6 6 Norte 11 Norte 0 1013.4 -0.2 76
2019-04-01 18:00:00 15.5 8 Norte 17 Norte 0 1013.4 -0.8 78
2019-04-01 17:00:00 15.8 11 Norte 18 Norte 0 1013.4 -1.3 75
2019-04-01 16:00:00 16.1 13 Nordeste 17 Nordeste 0 1013.6 -1.5 74
2019-04-01 15:00:00 15.7 15 Nordeste 18 Nordeste 0 1014.2 -1.2 77
2019-04-01 14:00:00 15.2 8 Norte 11 Nordeste 0 1014.7 -0.5 82
2019-04-01 13:00:00 14.2 3 Nordeste 9 Este 0 1015.1 0.2 83
2019-04-01 12:00:00 13.6 7 Sudeste 9 Sur 0 1015.4 0.8 83
2019-04-01 11:00:00 13.2 0 Calma 9 Este 0 1015.2 1.2 86
2019-04-01 10:00:00 12.4 0 Calma 5 Oeste 0.5 1014.9 1.3 91
2019-04-01 09:00:00 12.4 5 Sur 13 Sur 0 1014.6 0.9 89
2019-04-01 08:00:00 12.5 8 Sudeste 15 Sur 0.2 1014 0.3 87
2019-04-01 07:00:00 12.4 12 Sur 13 Sur 0.6 1013.6 -0.2 91
2019-04-01 06:00:00 12.6 7 Sudeste 15 Sur 0.5 1013.7 -0.2 87
2019-04-01 05:00:00 12.5 10 Sur 18 Sudoeste 1.1 1013.7 -0.1 86
2019-04-01 04:00:00 13.3 13 Sur 15 Sur 0.8 1013.8 0.1 82
2019-04-01 03:00:00 14 11 Sur -- -- 0.2 1013.9 0.1 77
2019-04-01 02:00:00 13.9 5 Sudoeste 8 Sudoeste 0 1013.8 -0.2 77
2019-04-01 01:00:00 13.7 3 Sudoeste 8 Sur 0 1013.7 0 76
2019-04-01 00:00:00 14.1 5 Sur 8 Sur 0 1013.8 0.5 71
2019-03-31 23:00:00 14.3 6 Sur 8 Sur 0 1014 0.9 74
2019-03-31 22:00:00 14.8 6 Oeste 8 Noroeste 0 1013.7 0.7 75
2019-03-31 21:00:00 15.3 3 Norte 9 Nordeste 0 1013.3 0.2 74
2019-03-31 20:00:00 16 7 Norte 11 Nordeste 0 1013.1 -0.1 71
2019-03-31 19:00:00 16.7 8 Norte 15 Nordeste 0 1013 -0.5 67
2019-03-31 18:00:00 16.9 10 Norte 17 Nordeste 0 1013.1 -1 72
2019-03-31 17:00:00 18 10 Nordeste 13 Nordeste 0 1013.2 -1.3 59
2019-03-31 16:00:00 17.8 8 Norte 15 Norte 0 1013.5 -1.5 56
2019-03-31 15:00:00 18 13 Nordeste 18 Nordeste 0 1014.1 -1.2 51
2019-03-31 14:00:00 19 13 Norte 24 Nordeste 0 1014.5 -1 44
2019-03-31 13:00:00 19.1 13 Nordeste 15 Nordeste 0 1015 -0.5 45
2019-03-31 12:00:00 19 4 Norte 9 Norte 0 1015.3 -0.3 42
2019-03-31 11:00:00 16.6 9 Sudoeste 11 Sur 0 1015.5 0.1 51
2019-03-31 10:00:00 12 4 Sur -- -- 0 1015.5 0.2 65
2019-03-31 09:00:00 8.9 6 Sur 13 Sudoeste 0 1015.6 0.1 78
2019-03-31 08:00:00 8 5 Oeste 8 Oeste 0 1015.4 -0.5 81
2019-03-31 07:00:00 8.1 5 Sudoeste 9 Sudoeste 0 1015.3 -1.1 81
2019-03-31 06:00:00 8.4 4 Sudoeste 8 Sudoeste 0 1015.5 -1.2 80
2019-03-31 05:00:00 8.9 3 Sudoeste 9 Sur 0 1015.9 -1.2 78
2019-03-31 03:00:00 10.3 4 Sudoeste 8 Sur 0 1016.7 -0.5 72
2019-03-31 01:00:00 10.8 5 Oeste 8 Oeste 0 1017.1 0 72
2019-03-31 00:00:00 11.8 5 Oeste 9 Sudoeste 0 1017.2 0.4 68
2019-03-30 23:00:00 13.1 9 Sudoeste 11 Sudoeste 0 1017.2 0.8 64
2019-03-30 22:00:00 14.1 7 Sur 13 Sur 0 1017.1 1.1 62
2019-03-30 21:00:00 14.1 5 Sur 8 Sur 0 1016.8 1 64
2019-03-30 20:00:00 16.6 4 Norte 9 Norte 0 1016.4 0.5 56
2019-03-30 19:00:00 18.4 10 Nordeste 17 Nordeste 0 1016 -0.3 46
2019-03-30 18:00:00 19.7 8 Norte 17 Nordeste 0 1015.8 -1 40
2019-03-30 17:00:00 19.9 10 Norte 15 Norte 0 1015.9 -1.4 41
2019-03-30 16:00:00 20.6 12 Nordeste 18 Nordeste 0 1016.3 -1.5 41
2019-03-30 15:00:00 22.5 12 Norte 18 Norte 0 1016.8 -1.7 30
2019-03-30 14:00:00 22.7 14 Norte 24 Sur 0 1017.3 -1.4 29
2019-03-30 13:00:00 22.6 13 Sudeste 24 Sudeste 0 1017.8 -1.1 25
2019-03-30 12:00:00 21.4 17 Sudeste 26 Sudeste 0 1018.5 -0.5 27
2019-03-30 11:00:00 20.1 22 Sur 32 Sur 0 1018.7 -0.2 29
2019-03-30 10:00:00 18.6 23 Sur 32 Sur 0 1018.9 0.2 30
2019-03-30 09:00:00 17.4 20 Sur 26 Sur 0 1019 0.6 33
2019-03-30 08:00:00 16.3 19 Sur 30 Sur 0 1018.9 0.4 32
2019-03-30 07:00:00 15.8 23 Sur 35 Sur 0 1018.7 0 33
2019-03-30 06:00:00 16.5 20 Sur 37 Sur 0 1018.4 -0.4 31
2019-03-30 05:00:00 17 15 Sur 28 Sur 0 1018.5 -0.5 32
2019-03-30 04:00:00 17.1 17 Sur 26 Sur 0 1018.7 -0.5 34
2019-03-30 03:00:00 17.3 15 Sur 32 Sudoeste 0 1018.8 -0.4 36
2019-03-30 02:00:00 17.4 17 Sudoeste 30 Sudoeste 0 1019 -0.3 35
2019-03-30 01:00:00 18.3 15 Sur 26 Sur 0 1019.2 -0.1 33
2019-03-30 00:00:00 17.9 10 Sudoeste 18 Sudoeste 0 1019.2 -0.1 32
2019-03-29 23:00:00 17.8 10 Sudoeste 15 Sudoeste 0 1019.3 0.2 32
2019-03-29 22:00:00 17.6 5 Oeste 15 Sur 0 1019.3 0.3 36
2019-03-29 21:00:00 18.6 7 Sudoeste 15 Sudoeste 0 1019.3 0.3 31
2019-03-29 20:00:00 18.5 5 Sudoeste 15 Sur 0 1019.1 -0.1 36
2019-03-29 19:00:00 21 15 Sur 18 Sur 0 1019 -0.5 29
2019-03-29 18:00:00 19 15 Norte 22 Norte 0 1019 -1.4 64
2019-03-29 17:00:00 18.5 18 Norte 30 Norte 0 1019.2 -2.3 66
2019-03-29 16:00:00 19.8 14 Norte 22 Norte 0 1019.5 -2.8 52
2019-03-29 15:00:00 19.1 15 Norte 24 Norte 0 1020.4 -2.8 57
2019-03-29 14:00:00 17.9 13 Norte 21 Norte 0 1021.5 -2.4 62
2019-03-29 13:00:00 16.7 13 Norte 21 Norte 0 1022.3 -2.1 63
2019-03-29 12:00:00 15.8 14 Norte 21 Norte 0 1023.2 -1.5 65
2019-03-29 11:00:00 14.7 13 Norte 18 Norte 0 1023.9 -1.1 69
2019-03-29 10:00:00 12.8 4 Este 9 Sudoeste 0 1024.4 -0.7 63
2019-03-29 09:00:00 8.8 6 Sudoeste 9 Sudoeste 0 1024.7 -0.5 74
2019-03-29 08:00:00 6.7 5 Sur 9 Sur 0 1025 -0.3 84
2019-03-29 07:00:00 6 6 Sur 11 Sudoeste 0 1025.1 -0.5 85
2019-03-29 06:00:00 6.5 6 Sur 11 Sudoeste 0 1025.2 -0.8 83
2019-03-29 05:00:00 6.8 8 Sur 11 Sur 0 1025.3 -1.1 84
2019-03-29 04:00:00 7.4 5 Sur 9 Sur 0 1025.6 -1.2 84
2019-03-29 03:00:00 7.7 8 Sur 11 Sur 0 1026 -0.9 83
2019-03-29 02:00:00 8.2 10 Sur 13 Sur 0 1026.4 -1 81
2019-03-29 01:00:00 8.9 8 Sur 17 Sur 0 1026.8 -1.1 81
2019-03-29 00:00:00 10.1 12 Sur 18 Sudoeste 0 1026.9 -1.2 81
2019-03-28 23:00:00 10.3 12 Sur 17 Sudoeste 0 1027.4 -0.5 81
2019-03-28 22:00:00 10.2 8 Sur 11 Sudoeste 0 1027.9 0.2 81
2019-03-28 21:00:00 11.1 6 Sudoeste 9 Sudoeste 0 1028.1 0.4 78
2019-03-28 20:00:00 11.9 5 Oeste 17 Oeste 0 1027.9 0.2 74
2019-03-28 19:00:00 13.4 8 Noroeste 21 Oeste 0 1027.7 -0.5 70
2019-03-28 18:00:00 14.8 10 Noroeste 21 Noroeste 0 1027.7 -0.9 62
2019-03-28 17:00:00 15.8 14 Norte 24 Norte 0 1027.7 -1.4 57
2019-03-28 16:00:00 15.7 13 Noroeste 24 Noroeste 0 1028.2 -1.4 57
2019-03-28 15:00:00 16.4 15 Norte 24 Noroeste 0 1028.6 -1.5 49
2019-03-28 14:00:00 16.3 17 Noroeste 26 Noroeste 0 1029.1 -1.3 51
2019-03-28 13:00:00 16.2 14 Norte 21 Norte 0 1029.6 -0.7 48
2019-03-28 12:00:00 16.1 13 Noroeste 21 Noroeste 0 1030.1 -0.2 50
2019-03-28 11:00:00 15.4 10 Oeste 21 Sudoeste 0 1030.4 0.4 47
2019-03-28 10:00:00 13.8 15 Sudoeste 22 Sudoeste 0 1030.3 0.6 66
2019-03-28 09:00:00 10.6 6 Sudoeste 9 Oeste 0 1030.3 0.9 79
2019-03-28 08:00:00 7.8 -- -- -- -- 0 1030 0.8 86
2019-03-28 07:00:00 7.2 12 Sur -- -- 0 1029.7 0.7 87
2019-03-28 06:00:00 7.3 11 Sur 13 Sur 0 1029.4 0.4 87
2019-03-28 05:00:00 7.6 9 Sur 13 Sur 0 1029.2 0 86
2019-03-28 04:00:00 8 9 Sur 13 Sur 0 1029 -0.5 86
2019-03-28 03:00:00 8.2 12 Sur 13 Sur 0 1029 -0.6 85
2019-03-28 02:00:00 8.6 10 Sur 13 Sur 0 1029.2 -0.2 84
2019-03-28 01:00:00 9.7 10 Sur 24 Sudoeste 0 1029.5 -0.1 81
2019-03-28 00:00:00 10.5 15 Sudoeste 24 Sudoeste 0 1029.6 0.1 77
2019-03-27 23:00:00 10.8 19 Sudoeste 30 Sudoeste 0 1029.4 0.4 75
2019-03-27 22:00:00 10.3 13 Sudoeste 21 Oeste 0 1029.6 0.7 76
2019-03-27 21:00:00 10.9 12 Sudoeste 17 Sudoeste 0 1029.5 0.9 74
2019-03-27 20:00:00 11.6 11 Sudoeste 15 Sudoeste 0 1029 0.4 70
2019-03-27 19:00:00 13 6 Oeste 21 Noroeste 0 1028.9 0.2 64
2019-03-27 18:00:00 13.9 11 Noroeste 21 Noroeste 0 1028.6 -0.2 60
2019-03-27 17:00:00 14.4 13 Noroeste 24 Noroeste 0 1028.6 -0.3 58
2019-03-27 16:00:00 14.5 13 Noroeste 26 Oeste 0 1028.7 -0.2 56
2019-03-27 15:00:00 14.5 15 Oeste 26 Noroeste 0 1028.8 -0.2 46
2019-03-27 14:00:00 14.8 12 Noroeste 28 Norte 0 1028.9 -0.1 46
2019-03-27 13:00:00 15 13 Noroeste 21 Noroeste 0 1028.9 0.1 42
2019-03-27 12:00:00 13 9 Nordeste 17 Norte 0 1029 0.5 53
2019-03-27 11:00:00 12.1 9 Norte 11 Norte 0 1029 0.6 55
2019-03-27 10:00:00 10.8 6 Nordeste 9 Norte 0 1028.8 1 59
2019-03-27 09:00:00 7.3 4 Sur 9 Sur 0 1028.5 1.3 76
2019-03-27 08:00:00 5.2 7 Sur 9 Sur 0 1028.4 1.4 85
2019-03-27 07:00:00 5 8 Sur 9 Sur 0 1027.8 0.9 85
2019-03-27 06:00:00 5.3 7 Sur 11 Sur 0 1027.2 0.2 84
2019-03-27 05:00:00 6.1 6 Sur 9 Sur 0 1027 -0.2 81
2019-03-27 04:00:00 7.3 5 Sur 11 Oeste 0 1026.9 -0.8 73
2019-03-27 03:00:00 8.9 2 Noroeste 17 Este 0 1027 -0.8 64
2019-03-27 02:00:00 10.1 14 Nordeste 22 Este 0 1027.2 -0.5 58
2019-03-27 01:00:00 8.7 17 Este 21 Nordeste 0 1027.7 0.5 73
2019-03-27 00:00:00 8.9 4 Oeste 11 Sudeste 0 1027.8 0.9 81